sensor_id;sensor_type;location;lat;lon;timestamp;P1;durP1;ratioP1;P2;durP2;ratioP2
21777;SDS011;11050;52.222;20.916;2022-11-12T00:00:59;25.85;;;16.30;;
21777;SDS011;11050;52.222;20.916;2022-11-12T00:03:25;25.98;;;15.82;;
21777;SDS011;11050;52.222;20.916;2022-11-12T00:05:51;24.80;;;15.68;;
21777;SDS011;11050;52.222;20.916;2022-11-12T00:08:17;26.97;;;15.67;;
21777;SDS011;11050;52.222;20.916;2022-11-12T00:10:44;26.30;;;15.87;;
21777;SDS011;11050;52.222;20.916;2022-11-12T00:13:10;31.80;;;15.87;;
21777;SDS011;11050;52.222;20.916;2022-11-12T00:15:36;27.23;;;15.80;;
21777;SDS011;11050;52.222;20.916;2022-11-12T00:18:02;29.57;;;15.60;;
21777;SDS011;11050;52.222;20.916;2022-11-12T00:20:28;28.52;;;16.58;;
21777;SDS011;11050;52.222;20.916;2022-11-12T00:22:54;24.40;;;15.70;;
21777;SDS011;11050;52.222;20.916;2022-11-12T00:25:20;23.67;;;15.53;;
21777;SDS011;11050;52.222;20.916;2022-11-12T00:27:45;22.57;;;14.70;;
21777;SDS011;11050;52.222;20.916;2022-11-12T00:30:11;25.47;;;14.80;;
21777;SDS011;11050;52.222;20.916;2022-11-12T00:32:37;31.40;;;16.63;;
21777;SDS011;11050;52.222;20.916;2022-11-12T00:35:03;32.80;;;16.30;;
21777;SDS011;11050;52.222;20.916;2022-11-12T00:37:31;25.38;;;15.25;;
21777;SDS011;11050;52.222;20.916;2022-11-12T00:39:56;25.85;;;15.63;;
21777;SDS011;11050;52.222;20.916;2022-11-12T00:42:22;26.67;;;15.70;;
21777;SDS011;11050;52.222;20.916;2022-11-12T00:44:48;22.92;;;15.18;;
21777;SDS011;11050;52.222;20.916;2022-11-12T00:47:14;27.23;;;15.00;;
21777;SDS011;11050;52.222;20.916;2022-11-12T00:49:40;26.10;;;15.00;;
21777;SDS011;11050;52.222;20.916;2022-11-12T00:52:06;27.48;;;15.68;;
21777;SDS011;11050;52.222;20.916;2022-11-12T00:54:31;24.20;;;14.82;;
21777;SDS011;11050;52.222;20.916;2022-11-12T00:56:57;24.88;;;14.73;;
21777;SDS011;11050;52.222;20.916;2022-11-12T00:59:23;28.70;;;15.27;;
21777;SDS011;11050;52.222;20.916;2022-11-12T01:01:48;25.23;;;15.65;;
21777;SDS011;11050;52.222;20.916;2022-11-12T01:04:14;25.00;;;14.57;;
21777;SDS011;11050;52.222;20.916;2022-11-12T01:06:40;21.88;;;15.10;;
21777;SDS011;11050;52.222;20.916;2022-11-12T01:09:07;29.37;;;15.90;;
21777;SDS011;11050;52.222;20.916;2022-11-12T01:11:33;26.07;;;15.57;;
21777;SDS011;11050;52.222;20.916;2022-11-12T01:14:01;25.10;;;15.80;;
21777;SDS011;11050;52.222;20.916;2022-11-12T01:16:33;26.80;;;16.07;;
21777;SDS011;11050;52.222;20.916;2022-11-12T01:19:03;26.98;;;15.55;;
21777;SDS011;11050;52.222;20.916;2022-11-12T01:21:32;24.77;;;14.43;;
21777;SDS011;11050;52.222;20.916;2022-11-12T01:24:04;26.20;;;16.63;;
21777;SDS011;11050;52.222;20.916;2022-11-12T01:26:30;27.45;;;16.17;;
21777;SDS011;11050;52.222;20.916;2022-11-12T01:28:56;27.23;;;16.27;;
21777;SDS011;11050;52.222;20.916;2022-11-12T01:31:26;31.07;;;18.13;;
21777;SDS011;11050;52.222;20.916;2022-11-12T01:33:56;29.10;;;16.63;;
21777;SDS011;11050;52.222;20.916;2022-11-12T01:36:25;26.08;;;15.88;;
21777;SDS011;11050;52.222;20.916;2022-11-12T01:38:52;27.52;;;15.75;;
21777;SDS011;11050;52.222;20.916;2022-11-12T01:41:24;27.83;;;16.55;;
21777;SDS011;11050;52.222;20.916;2022-11-12T01:46:40;28.73;;;16.40;;
21777;SDS011;11050;52.222;20.916;2022-11-12T01:49:39;26.45;;;16.30;;
21777;SDS011;11050;52.222;20.916;2022-11-12T01:52:17;26.30;;;16.83;;
21777;SDS011;11050;52.222;20.916;2022-11-12T01:55:08;30.03;;;18.07;;
21777;SDS011;11050;52.222;20.916;2022-11-12T01:57:42;25.35;;;16.35;;
21777;SDS011;11050;52.222;20.916;2022-11-12T02:00:17;29.45;;;17.92;;
21777;SDS011;11050;52.222;20.916;2022-11-12T02:02:45;29.70;;;17.92;;
21777;SDS011;11050;52.222;20.916;2022-11-12T02:05:24;28.77;;;18.70;;
21777;SDS011;11050;52.222;20.916;2022-11-12T02:07:53;29.33;;;18.77;;
21777;SDS011;11050;52.222;20.916;2022-11-12T02:10:21;31.27;;;18.83;;
21777;SDS011;11050;52.222;20.916;2022-11-12T02:12:47;30.15;;;17.95;;
21777;SDS011;11050;52.222;20.916;2022-11-12T02:15:35;29.17;;;17.80;;
21777;SDS011;11050;52.222;20.916;2022-11-12T02:18:03;27.60;;;17.25;;
21777;SDS011;11050;52.222;20.916;2022-11-12T02:20:33;31.98;;;17.63;;
21777;SDS011;11050;52.222;20.916;2022-11-12T02:23:02;28.67;;;16.73;;
21777;SDS011;11050;52.222;20.916;2022-11-12T02:25:30;26.95;;;16.98;;
21777;SDS011;11050;52.222;20.916;2022-11-12T02:27:57;30.70;;;17.50;;
21777;SDS011;11050;52.222;20.916;2022-11-12T02:33:26;32.38;;;18.08;;
21777;SDS011;11050;52.222;20.916;2022-11-12T02:35:53;27.40;;;16.10;;
21777;SDS011;11050;52.222;20.916;2022-11-12T02:38:19;27.50;;;16.73;;
21777;SDS011;11050;52.222;20.916;2022-11-12T02:40:44;30.30;;;17.85;;
21777;SDS011;11050;52.222;20.916;2022-11-12T02:43:10;28.67;;;17.53;;
21777;SDS011;11050;52.222;20.916;2022-11-12T02:45:36;27.60;;;16.60;;
21777;SDS011;11050;52.222;20.916;2022-11-12T02:48:02;30.77;;;17.38;;
21777;SDS011;11050;52.222;20.916;2022-11-12T02:50:27;35.83;;;18.08;;
21777;SDS011;11050;52.222;20.916;2022-11-12T02:52:53;26.20;;;17.43;;
21777;SDS011;11050;52.222;20.916;2022-11-12T02:55:19;31.60;;;19.38;;
21777;SDS011;11050;52.222;20.916;2022-11-12T02:57:44;24.02;;;15.90;;
21777;SDS011;11050;52.222;20.916;2022-11-12T03:00:11;29.30;;;17.65;;
21777;SDS011;11050;52.222;20.916;2022-11-12T03:02:37;26.38;;;16.95;;
21777;SDS011;11050;52.222;20.916;2022-11-12T03:05:23;27.63;;;17.00;;
21777;SDS011;11050;52.222;20.916;2022-11-12T03:08:03;28.27;;;18.13;;
21777;SDS011;11050;52.222;20.916;2022-11-12T03:10:32;30.70;;;17.98;;
21777;SDS011;11050;52.222;20.916;2022-11-12T03:13:00;31.03;;;17.87;;
21777;SDS011;11050;52.222;20.916;2022-11-12T03:15:27;30.65;;;17.63;;
21777;SDS011;11050;52.222;20.916;2022-11-12T03:17:54;30.95;;;17.80;;
21777;SDS011;11050;52.222;20.916;2022-11-12T03:20:22;29.77;;;17.57;;
21777;SDS011;11050;52.222;20.916;2022-11-12T03:25:44;27.47;;;16.13;;
21777;SDS011;11050;52.222;20.916;2022-11-12T03:28:13;28.30;;;17.35;;
21777;SDS011;11050;52.222;20.916;2022-11-12T03:30:41;31.75;;;17.98;;
21777;SDS011;11050;52.222;20.916;2022-11-12T03:33:08;29.50;;;17.13;;
21777;SDS011;11050;52.222;20.916;2022-11-12T03:35:36;25.77;;;15.02;;
21777;SDS011;11050;52.222;20.916;2022-11-12T03:38:04;25.33;;;15.73;;
21777;SDS011;11050;52.222;20.916;2022-11-12T03:40:30;23.88;;;15.02;;
21777;SDS011;11050;52.222;20.916;2022-11-12T03:42:57;24.80;;;15.43;;
21777;SDS011;11050;52.222;20.916;2022-11-12T03:45:24;25.90;;;14.70;;
21777;SDS011;11050;52.222;20.916;2022-11-12T03:47:53;27.00;;;15.02;;
21777;SDS011;11050;52.222;20.916;2022-11-12T03:50:22;26.50;;;15.23;;
21777;SDS011;11050;52.222;20.916;2022-11-12T03:52:52;26.30;;;16.48;;
21777;SDS011;11050;52.222;20.916;2022-11-12T03:55:21;28.63;;;15.80;;
21777;SDS011;11050;52.222;20.916;2022-11-12T03:57:50;29.67;;;16.13;;
21777;SDS011;11050;52.222;20.916;2022-11-12T04:00:18;22.93;;;15.00;;
21777;SDS011;11050;52.222;20.916;2022-11-12T04:02:46;25.05;;;14.23;;
21777;SDS011;11050;52.222;20.916;2022-11-12T04:05:13;21.43;;;13.83;;
21777;SDS011;11050;52.222;20.916;2022-11-12T04:07:58;24.55;;;14.75;;
21777;SDS011;11050;52.222;20.916;2022-11-12T04:10:49;27.40;;;14.63;;
21777;SDS011;11050;52.222;20.916;2022-11-12T04:13:16;23.97;;;14.23;;
21777;SDS011;11050;52.222;20.916;2022-11-12T04:15:51;27.97;;;14.40;;
21777;SDS011;11050;52.222;20.916;2022-11-12T04:18:38;23.30;;;14.57;;
21777;SDS011;11050;52.222;20.916;2022-11-12T04:21:24;25.13;;;14.10;;
21777;SDS011;11050;52.222;20.916;2022-11-12T04:29:42;25.08;;;13.77;;
21777;SDS011;11050;52.222;20.916;2022-11-12T04:32:29;28.57;;;15.53;;
21777;SDS011;11050;52.222;20.916;2022-11-12T04:34:56;22.97;;;13.83;;
21777;SDS011;11050;52.222;20.916;2022-11-12T04:37:23;24.03;;;14.83;;
21777;SDS011;11050;52.222;20.916;2022-11-12T04:39:52;27.33;;;15.45;;
21777;SDS011;11050;52.222;20.916;2022-11-12T04:42:18;28.70;;;14.37;;
21777;SDS011;11050;52.222;20.916;2022-11-12T04:45:08;26.33;;;15.43;;
21777;SDS011;11050;52.222;20.916;2022-11-12T04:47:39;29.00;;;16.57;;
21777;SDS011;11050;52.222;20.916;2022-11-12T04:50:17;28.43;;;17.17;;
21777;SDS011;11050;52.222;20.916;2022-11-12T04:52:43;29.27;;;17.37;;
21777;SDS011;11050;52.222;20.916;2022-11-12T04:55:09;31.93;;;17.90;;
21777;SDS011;11050;52.222;20.916;2022-11-12T04:57:36;28.73;;;17.60;;
21777;SDS011;11050;52.222;20.916;2022-11-12T05:00:05;34.80;;;18.23;;
21777;SDS011;11050;52.222;20.916;2022-11-12T05:02:31;30.13;;;17.20;;
21777;SDS011;11050;52.222;20.916;2022-11-12T05:04:57;32.30;;;17.87;;
21777;SDS011;11050;52.222;20.916;2022-11-12T05:07:23;30.10;;;17.17;;
21777;SDS011;11050;52.222;20.916;2022-11-12T05:09:48;30.53;;;18.13;;
21777;SDS011;11050;52.222;20.916;2022-11-12T05:12:14;34.87;;;18.87;;
21777;SDS011;11050;52.222;20.916;2022-11-12T05:14:40;31.33;;;19.03;;
21777;SDS011;11050;52.222;20.916;2022-11-12T05:17:06;34.90;;;19.30;;
21777;SDS011;11050;52.222;20.916;2022-11-12T05:19:31;27.80;;;17.63;;
21777;SDS011;11050;52.222;20.916;2022-11-12T05:21:58;31.17;;;17.63;;
21777;SDS011;11050;52.222;20.916;2022-11-12T05:24:37;35.93;;;18.80;;
21777;SDS011;11050;52.222;20.916;2022-11-12T05:27:07;36.30;;;20.43;;
21777;SDS011;11050;52.222;20.916;2022-11-12T05:29:42;32.87;;;18.87;;
21777;SDS011;11050;52.222;20.916;2022-11-12T05:32:09;32.83;;;19.23;;
21777;SDS011;11050;52.222;20.916;2022-11-12T05:34:38;31.43;;;18.70;;
21777;SDS011;11050;52.222;20.916;2022-11-12T05:37:05;37.13;;;21.30;;
21777;SDS011;11050;52.222;20.916;2022-11-12T05:39:33;38.97;;;20.20;;
21777;SDS011;11050;52.222;20.916;2022-11-12T05:41:58;31.93;;;17.97;;
21777;SDS011;11050;52.222;20.916;2022-11-12T05:44:24;31.07;;;19.53;;
21777;SDS011;11050;52.222;20.916;2022-11-12T05:46:50;35.43;;;19.27;;
21777;SDS011;11050;52.222;20.916;2022-11-12T05:49:16;31.53;;;18.63;;
21777;SDS011;11050;52.222;20.916;2022-11-12T05:51:42;31.80;;;19.03;;
21777;SDS011;11050;52.222;20.916;2022-11-12T05:54:08;28.33;;;18.63;;
21777;SDS011;11050;52.222;20.916;2022-11-12T05:56:35;35.93;;;19.17;;
21777;SDS011;11050;52.222;20.916;2022-11-12T05:59:02;38.80;;;20.83;;
21777;SDS011;11050;52.222;20.916;2022-11-12T06:01:30;34.93;;;19.53;;
21777;SDS011;11050;52.222;20.916;2022-11-12T06:03:57;32.63;;;19.37;;
21777;SDS011;11050;52.222;20.916;2022-11-12T06:06:23;37.67;;;20.57;;
21777;SDS011;11050;52.222;20.916;2022-11-12T06:08:49;36.30;;;21.23;;
21777;SDS011;11050;52.222;20.916;2022-11-12T06:11:15;37.00;;;21.93;;
21777;SDS011;11050;52.222;20.916;2022-11-12T06:13:41;36.10;;;21.80;;
21777;SDS011;11050;52.222;20.916;2022-11-12T06:16:07;39.40;;;22.13;;
21777;SDS011;11050;52.222;20.916;2022-11-12T06:18:33;34.73;;;22.13;;
21777;SDS011;11050;52.222;20.916;2022-11-12T06:21:00;35.37;;;22.13;;
21777;SDS011;11050;52.222;20.916;2022-11-12T06:23:45;41.80;;;22.80;;
21777;SDS011;11050;52.222;20.916;2022-11-12T06:26:11;43.10;;;25.13;;
21777;SDS011;11050;52.222;20.916;2022-11-12T06:28:37;41.33;;;23.80;;
21777;SDS011;11050;52.222;20.916;2022-11-12T06:31:03;44.57;;;27.70;;
21777;SDS011;11050;52.222;20.916;2022-11-12T06:33:29;41.23;;;24.97;;
21777;SDS011;11050;52.222;20.916;2022-11-12T06:35:55;45.53;;;25.93;;
21777;SDS011;11050;52.222;20.916;2022-11-12T06:38:27;44.63;;;26.80;;
21777;SDS011;11050;52.222;20.916;2022-11-12T06:41:00;38.33;;;19.97;;
21777;SDS011;11050;52.222;20.916;2022-11-12T06:43:28;47.63;;;25.97;;
21777;SDS011;11050;52.222;20.916;2022-11-12T06:46:03;47.80;;;27.33;;
21777;SDS011;11050;52.222;20.916;2022-11-12T06:48:32;48.93;;;28.43;;
21777;SDS011;11050;52.222;20.916;2022-11-12T06:51:04;47.57;;;26.00;;
21777;SDS011;11050;52.222;20.916;2022-11-12T06:53:44;49.73;;;27.43;;
21777;SDS011;11050;52.222;20.916;2022-11-12T06:56:11;42.37;;;25.80;;
21777;SDS011;11050;52.222;20.916;2022-11-12T06:58:37;55.10;;;28.30;;
21777;SDS011;11050;52.222;20.916;2022-11-12T07:01:13;47.17;;;24.90;;
21777;SDS011;11050;52.222;20.916;2022-11-12T07:03:42;45.73;;;25.20;;
21777;SDS011;11050;52.222;20.916;2022-11-12T07:06:10;47.80;;;26.97;;
21777;SDS011;11050;52.222;20.916;2022-11-12T07:08:38;49.73;;;26.93;;
21777;SDS011;11050;52.222;20.916;2022-11-12T07:11:05;46.27;;;26.33;;
21777;SDS011;11050;52.222;20.916;2022-11-12T07:13:32;45.63;;;25.43;;
21777;SDS011;11050;52.222;20.916;2022-11-12T07:16:00;46.57;;;25.87;;
21777;SDS011;11050;52.222;20.916;2022-11-12T07:18:26;47.00;;;25.73;;
21777;SDS011;11050;52.222;20.916;2022-11-12T07:21:00;47.13;;;25.87;;
21777;SDS011;11050;52.222;20.916;2022-11-12T07:23:30;43.83;;;25.87;;
21777;SDS011;11050;52.222;20.916;2022-11-12T07:25:58;48.77;;;27.17;;
21777;SDS011;11050;52.222;20.916;2022-11-12T07:28:36;49.67;;;27.20;;
21777;SDS011;11050;52.222;20.916;2022-11-12T07:31:03;46.83;;;26.37;;
21777;SDS011;11050;52.222;20.916;2022-11-12T07:33:32;48.20;;;27.97;;
21777;SDS011;11050;52.222;20.916;2022-11-12T07:36:02;51.40;;;26.57;;
21777;SDS011;11050;52.222;20.916;2022-11-12T07:38:32;48.80;;;26.90;;
21777;SDS011;11050;52.222;20.916;2022-11-12T07:41:01;48.53;;;28.27;;
21777;SDS011;11050;52.222;20.916;2022-11-12T07:43:34;50.40;;;29.57;;
21777;SDS011;11050;52.222;20.916;2022-11-12T07:46:06;52.33;;;28.53;;
21777;SDS011;11050;52.222;20.916;2022-11-12T07:48:44;51.37;;;28.10;;
21777;SDS011;11050;52.222;20.916;2022-11-12T07:51:18;47.80;;;28.87;;
21777;SDS011;11050;52.222;20.916;2022-11-12T07:53:48;50.03;;;28.17;;
21777;SDS011;11050;52.222;20.916;2022-11-12T07:56:18;57.20;;;29.73;;
21777;SDS011;11050;52.222;20.916;2022-11-12T07:58:47;51.03;;;31.00;;
21777;SDS011;11050;52.222;20.916;2022-11-12T08:01:30;55.40;;;29.30;;
21777;SDS011;11050;52.222;20.916;2022-11-12T08:03:57;49.93;;;28.63;;
21777;SDS011;11050;52.222;20.916;2022-11-12T08:06:24;48.77;;;30.30;;
21777;SDS011;11050;52.222;20.916;2022-11-12T08:08:51;50.70;;;29.67;;
21777;SDS011;11050;52.222;20.916;2022-11-12T08:11:21;52.10;;;31.37;;
21777;SDS011;11050;52.222;20.916;2022-11-12T08:13:49;51.43;;;28.70;;
21777;SDS011;11050;52.222;20.916;2022-11-12T08:16:15;45.17;;;26.53;;
21777;SDS011;11050;52.222;20.916;2022-11-12T08:18:42;48.63;;;28.43;;
21777;SDS011;11050;52.222;20.916;2022-11-12T08:21:10;50.27;;;27.93;;
21777;SDS011;11050;52.222;20.916;2022-11-12T08:23:38;51.47;;;28.90;;
21777;SDS011;11050;52.222;20.916;2022-11-12T08:26:05;45.87;;;27.20;;
21777;SDS011;11050;52.222;20.916;2022-11-12T08:28:36;51.60;;;30.27;;
21777;SDS011;11050;52.222;20.916;2022-11-12T08:31:03;49.40;;;27.80;;
21777;SDS011;11050;52.222;20.916;2022-11-12T08:33:35;51.03;;;28.83;;
21777;SDS011;11050;52.222;20.916;2022-11-12T08:36:03;47.23;;;27.20;;
21777;SDS011;11050;52.222;20.916;2022-11-12T08:38:31;45.60;;;26.63;;
21777;SDS011;11050;52.222;20.916;2022-11-12T08:41:04;53.17;;;26.30;;
21777;SDS011;11050;52.222;20.916;2022-11-12T08:43:33;48.73;;;26.97;;
21777;SDS011;11050;52.222;20.916;2022-11-12T08:46:00;48.17;;;27.17;;
21777;SDS011;11050;52.222;20.916;2022-11-12T08:48:28;51.13;;;27.63;;
21777;SDS011;11050;52.222;20.916;2022-11-12T08:50:56;49.00;;;27.03;;
21777;SDS011;11050;52.222;20.916;2022-11-12T08:53:25;50.77;;;27.80;;
21777;SDS011;11050;52.222;20.916;2022-11-12T08:55:52;45.73;;;27.00;;
21777;SDS011;11050;52.222;20.916;2022-11-12T08:58:19;50.13;;;28.00;;
21777;SDS011;11050;52.222;20.916;2022-11-12T09:00:46;48.03;;;27.33;;
21777;SDS011;11050;52.222;20.916;2022-11-12T09:03:14;51.70;;;29.70;;
21777;SDS011;11050;52.222;20.916;2022-11-12T09:05:44;56.37;;;31.47;;
21777;SDS011;11050;52.222;20.916;2022-11-12T09:08:12;47.03;;;28.37;;
21777;SDS011;11050;52.222;20.916;2022-11-12T09:10:44;50.73;;;27.53;;
21777;SDS011;11050;52.222;20.916;2022-11-12T09:13:10;50.43;;;29.97;;
21777;SDS011;11050;52.222;20.916;2022-11-12T09:15:36;51.27;;;29.90;;
21777;SDS011;11050;52.222;20.916;2022-11-12T09:18:03;50.33;;;29.30;;
21777;SDS011;11050;52.222;20.916;2022-11-12T09:20:35;48.63;;;28.47;;
21777;SDS011;11050;52.222;20.916;2022-11-12T09:23:05;54.43;;;28.70;;
21777;SDS011;11050;52.222;20.916;2022-11-12T09:25:37;50.47;;;29.37;;
21777;SDS011;11050;52.222;20.916;2022-11-12T09:28:05;49.37;;;29.17;;
21777;SDS011;11050;52.222;20.916;2022-11-12T09:30:57;49.67;;;29.33;;
21777;SDS011;11050;52.222;20.916;2022-11-12T09:33:28;46.63;;;25.33;;
21777;SDS011;11050;52.222;20.916;2022-11-12T09:35:59;55.83;;;32.87;;
21777;SDS011;11050;52.222;20.916;2022-11-12T09:38:26;50.53;;;30.67;;
21777;SDS011;11050;52.222;20.916;2022-11-12T09:43:37;54.97;;;30.67;;
21777;SDS011;11050;52.222;20.916;2022-11-12T09:49:04;52.57;;;31.43;;
21777;SDS011;11050;52.222;20.916;2022-11-12T09:51:41;52.63;;;30.03;;
21777;SDS011;11050;52.222;20.916;2022-11-12T09:54:21;53.00;;;31.70;;
21777;SDS011;11050;52.222;20.916;2022-11-12T09:56:54;48.30;;;29.40;;
21777;SDS011;11050;52.222;20.916;2022-11-12T09:59:20;52.77;;;30.20;;
21777;SDS011;11050;52.222;20.916;2022-11-12T10:24:52;50.27;;;29.83;;
21777;SDS011;11050;52.222;20.916;2022-11-12T10:27:23;49.30;;;31.30;;
21777;SDS011;11050;52.222;20.916;2022-11-12T10:30:04;48.03;;;30.63;;
21777;SDS011;11050;52.222;20.916;2022-11-12T10:32:40;47.97;;;30.97;;
21777;SDS011;11050;52.222;20.916;2022-11-12T10:35:10;49.43;;;32.00;;
21777;SDS011;11050;52.222;20.916;2022-11-12T10:37:44;49.77;;;31.60;;
21777;SDS011;11050;52.222;20.916;2022-11-12T10:40:28;47.03;;;30.60;;
21777;SDS011;11050;52.222;20.916;2022-11-12T10:45:46;46.07;;;30.37;;
21777;SDS011;11050;52.222;20.916;2022-11-12T10:48:27;47.20;;;30.97;;
21777;SDS011;11050;52.222;20.916;2022-11-12T10:50:57;53.73;;;32.73;;
21777;SDS011;11050;52.222;20.916;2022-11-12T10:53:34;49.20;;;31.23;;
21777;SDS011;11050;52.222;20.916;2022-11-12T10:56:04;46.53;;;29.30;;
21777;SDS011;11050;52.222;20.916;2022-11-12T10:59:08;47.20;;;31.63;;
21777;SDS011;11050;52.222;20.916;2022-11-12T11:01:53;45.23;;;29.03;;
21777;SDS011;11050;52.222;20.916;2022-11-12T11:07:13;43.73;;;30.30;;
21777;SDS011;11050;52.222;20.916;2022-11-12T11:09:56;46.20;;;30.90;;
21777;SDS011;11050;52.222;20.916;2022-11-12T11:15:04;48.27;;;30.97;;
21777;SDS011;11050;52.222;20.916;2022-11-12T11:17:36;41.90;;;28.97;;
21777;SDS011;11050;52.222;20.916;2022-11-12T11:20:12;43.37;;;29.80;;
21777;SDS011;11050;52.222;20.916;2022-11-12T11:22:58;41.80;;;27.93;;
21777;SDS011;11050;52.222;20.916;2022-11-12T11:25:56;43.00;;;27.63;;
21777;SDS011;11050;52.222;20.916;2022-11-12T11:28:48;41.43;;;26.83;;
21777;SDS011;11050;52.222;20.916;2022-11-12T11:31:39;40.33;;;26.60;;
21777;SDS011;11050;52.222;20.916;2022-11-12T11:37:02;38.80;;;24.63;;
21777;SDS011;11050;52.222;20.916;2022-11-12T11:40:33;36.67;;;24.07;;
21777;SDS011;11050;52.222;20.916;2022-11-12T11:46:37;36.87;;;23.17;;
21777;SDS011;11050;52.222;20.916;2022-11-12T12:01:02;34.70;;;23.33;;
21777;SDS011;11050;52.222;20.916;2022-11-12T12:06:47;32.27;;;21.47;;
21777;SDS011;11050;52.222;20.916;2022-11-12T12:09:43;32.00;;;21.07;;
21777;SDS011;11050;52.222;20.916;2022-11-12T12:19:00;34.30;;;21.00;;
21777;SDS011;11050;52.222;20.916;2022-11-12T12:21:43;29.93;;;17.77;;
21777;SDS011;11050;52.222;20.916;2022-11-12T12:27:36;31.17;;;18.37;;
21777;SDS011;11050;52.222;20.916;2022-11-12T12:30:17;27.98;;;17.08;;
21777;SDS011;11050;52.222;20.916;2022-11-12T12:32:58;29.30;;;17.57;;
21777;SDS011;11050;52.222;20.916;2022-11-12T12:35:57;28.53;;;16.37;;
21777;SDS011;11050;52.222;20.916;2022-11-12T12:38:36;36.03;;;19.70;;
21777;SDS011;11050;52.222;20.916;2022-11-12T12:43:53;29.30;;;17.13;;
21777;SDS011;11050;52.222;20.916;2022-11-12T12:46:41;27.83;;;17.17;;
21777;SDS011;11050;52.222;20.916;2022-11-12T12:49:31;25.03;;;16.23;;
21777;SDS011;11050;52.222;20.916;2022-11-12T12:52:01;30.43;;;17.30;;
21777;SDS011;11050;52.222;20.916;2022-11-12T12:56:59;27.30;;;17.37;;
21777;SDS011;11050;52.222;20.916;2022-11-12T12:59:27;29.98;;;19.25;;
21777;SDS011;11050;52.222;20.916;2022-11-12T13:02:00;28.03;;;17.07;;
21777;SDS011;11050;52.222;20.916;2022-11-12T13:07:20;23.90;;;15.48;;
21777;SDS011;11050;52.222;20.916;2022-11-12T13:15:46;24.13;;;14.93;;
21777;SDS011;11050;52.222;20.916;2022-11-12T13:21:16;25.88;;;16.08;;
21777;SDS011;11050;52.222;20.916;2022-11-12T13:26:41;26.53;;;15.03;;
21777;SDS011;11050;52.222;20.916;2022-11-12T13:29:20;28.03;;;16.13;;
21777;SDS011;11050;52.222;20.916;2022-11-12T13:35:12;26.73;;;16.80;;
21777;SDS011;11050;52.222;20.916;2022-11-12T13:45:49;31.17;;;18.10;;
21777;SDS011;11050;52.222;20.916;2022-11-12T13:51:13;33.03;;;18.87;;
21777;SDS011;11050;52.222;20.916;2022-11-12T13:53:43;30.93;;;19.53;;
21777;SDS011;11050;52.222;20.916;2022-11-12T13:56:10;33.40;;;21.57;;
21777;SDS011;11050;52.222;20.916;2022-11-12T13:58:50;34.07;;;21.20;;
21777;SDS011;11050;52.222;20.916;2022-11-12T14:01:18;32.85;;;20.88;;
21777;SDS011;11050;52.222;20.916;2022-11-12T14:03:47;33.80;;;21.83;;
21777;SDS011;11050;52.222;20.916;2022-11-12T14:06:21;37.97;;;23.30;;
21777;SDS011;11050;52.222;20.916;2022-11-12T14:09:08;33.47;;;21.80;;
21777;SDS011;11050;52.222;20.916;2022-11-12T14:20:39;44.80;;;27.93;;
21777;SDS011;11050;52.222;20.916;2022-11-12T14:23:16;41.10;;;25.90;;
21777;SDS011;11050;52.222;20.916;2022-11-12T14:25:49;41.77;;;27.03;;
21777;SDS011;11050;52.222;20.916;2022-11-12T14:28:30;55.73;;;31.70;;
21777;SDS011;11050;52.222;20.916;2022-11-12T14:30:58;41.27;;;25.53;;
21777;SDS011;11050;52.222;20.916;2022-11-12T14:33:27;40.58;;;26.25;;
21777;SDS011;11050;52.222;20.916;2022-11-12T14:38:27;41.50;;;25.83;;
21777;SDS011;11050;52.222;20.916;2022-11-12T14:41:19;40.27;;;25.97;;
21777;SDS011;11050;52.222;20.916;2022-11-12T14:44:00;42.73;;;26.63;;
21777;SDS011;11050;52.222;20.916;2022-11-12T14:52:12;45.30;;;28.40;;
21777;SDS011;11050;52.222;20.916;2022-11-12T14:54:47;44.00;;;28.05;;
21777;SDS011;11050;52.222;20.916;2022-11-12T14:57:27;42.70;;;28.37;;
21777;SDS011;11050;52.222;20.916;2022-11-12T14:59:56;43.43;;;27.10;;
21777;SDS011;11050;52.222;20.916;2022-11-12T15:02:23;40.90;;;25.13;;
21777;SDS011;11050;52.222;20.916;2022-11-12T15:05:15;44.03;;;27.03;;
21777;SDS011;11050;52.222;20.916;2022-11-12T15:15:50;54.67;;;33.70;;
21777;SDS011;11050;52.222;20.916;2022-11-12T15:18:20;55.27;;;34.73;;
21777;SDS011;11050;52.222;20.916;2022-11-12T15:21:08;46.07;;;30.87;;
21777;SDS011;11050;52.222;20.916;2022-11-12T15:23:51;45.90;;;29.03;;
21777;SDS011;11050;52.222;20.916;2022-11-12T15:26:49;40.30;;;27.00;;
21777;SDS011;11050;52.222;20.916;2022-11-12T15:29:31;44.73;;;27.20;;
21777;SDS011;11050;52.222;20.916;2022-11-12T15:32:02;42.67;;;25.30;;
21777;SDS011;11050;52.222;20.916;2022-11-12T15:34:47;44.80;;;25.50;;
21777;SDS011;11050;52.222;20.916;2022-11-12T15:39:43;42.07;;;25.90;;
21777;SDS011;11050;52.222;20.916;2022-11-12T15:42:22;44.10;;;27.13;;
21777;SDS011;11050;52.222;20.916;2022-11-12T15:45:03;40.78;;;24.27;;
21777;SDS011;11050;52.222;20.916;2022-11-12T15:47:39;44.97;;;27.13;;
21777;SDS011;11050;52.222;20.916;2022-11-12T15:52:43;41.13;;;25.37;;
21777;SDS011;11050;52.222;20.916;2022-11-12T15:55:10;40.63;;;24.20;;
21777;SDS011;11050;52.222;20.916;2022-11-12T15:57:47;37.57;;;22.63;;
21777;SDS011;11050;52.222;20.916;2022-11-12T16:00:20;39.87;;;24.27;;
21777;SDS011;11050;52.222;20.916;2022-11-12T16:03:10;42.10;;;25.10;;
21777;SDS011;11050;52.222;20.916;2022-11-12T16:05:45;39.80;;;23.23;;
21777;SDS011;11050;52.222;20.916;2022-11-12T16:08:12;37.00;;;21.93;;
21777;SDS011;11050;52.222;20.916;2022-11-12T16:10:38;39.13;;;25.03;;
21777;SDS011;11050;52.222;20.916;2022-11-12T16:13:12;40.47;;;23.27;;
21777;SDS011;11050;52.222;20.916;2022-11-12T16:15:44;41.40;;;24.17;;
21777;SDS011;11050;52.222;20.916;2022-11-12T16:18:10;35.95;;;22.92;;
21777;SDS011;11050;52.222;20.916;2022-11-12T16:20:36;35.10;;;22.00;;
21777;SDS011;11050;52.222;20.916;2022-11-12T16:23:02;36.23;;;22.93;;
21777;SDS011;11050;52.222;20.916;2022-11-12T16:25:30;37.73;;;21.70;;
21777;SDS011;11050;52.222;20.916;2022-11-12T16:27:59;38.17;;;23.53;;
21777;SDS011;11050;52.222;20.916;2022-11-12T16:30:30;38.03;;;23.20;;
21777;SDS011;11050;52.222;20.916;2022-11-12T16:32:58;42.10;;;22.80;;
21777;SDS011;11050;52.222;20.916;2022-11-12T16:35:25;36.10;;;21.17;;
21777;SDS011;11050;52.222;20.916;2022-11-12T16:37:53;36.20;;;22.00;;
21777;SDS011;11050;52.222;20.916;2022-11-12T16:40:24;34.80;;;20.83;;
21777;SDS011;11050;52.222;20.916;2022-11-12T16:42:53;36.80;;;22.27;;
21777;SDS011;11050;52.222;20.916;2022-11-12T16:45:19;38.50;;;22.37;;
21777;SDS011;11050;52.222;20.916;2022-11-12T16:47:50;37.27;;;21.47;;
21777;SDS011;11050;52.222;20.916;2022-11-12T16:50:19;33.47;;;21.30;;
21777;SDS011;11050;52.222;20.916;2022-11-12T16:52:51;31.53;;;19.80;;
21777;SDS011;11050;52.222;20.916;2022-11-12T16:55:17;35.30;;;21.63;;
21777;SDS011;11050;52.222;20.916;2022-11-12T16:57:45;37.37;;;21.87;;
21777;SDS011;11050;52.222;20.916;2022-11-12T17:00:11;37.33;;;22.73;;